Time;durP1;ratioP1;P1;durP2;ratioP2;P2;SDS_P1;SDS_P2;PMS_P1;PMS_P2;Temp;Humidity;BMP_temperature;BMP_pressure;BME280_temperature;BME280_humidity;BME280_pressure;Samples;Min_cycle;Max_cycle;Signal;HPM_P1;HPM_P2
2022/10/13 00:01:53;;;;;;;;;;;10.70;92.40;;;;;;4993860;28;19934;-68
2022/10/13 00:04:19;;;;;;;;;;;10.70;92.50;;;;;;4996247;28;19914;-69
2022/10/13 00:06:44;;;;;;;;;;;10.70;92.40;;;;;;4985157;28;19956;-69
2022/10/13 00:09:10;;;;;;;;;;;10.70;92.40;;;;;;4987211;28;19914;-69
2022/10/13 00:11:35;;;;;;;;;;;10.70;92.40;;;;;;4989673;28;19926;-69
2022/10/13 00:14:02;;;;;;;;;;;10.70;92.40;;;;;;4989122;28;19920;-69
2022/10/13 00:16:28;;;;;;;;;;;10.70;92.40;;;;;;4990171;28;19929;-69
2022/10/13 00:18:54;;;;;;;;;;;10.70;92.40;;;;;;4995023;28;19914;-69
2022/10/13 00:21:21;;;;;;;;;;;10.70;92.40;;;;;;4989591;28;19925;-69
2022/10/13 00:23:46;;;;;;;;;;;10.70;92.50;;;;;;4986810;28;19918;-69
2022/10/13 00:26:13;;;;;;;;;;;10.70;92.40;;;;;;4994597;28;19920;-69
2022/10/13 00:28:39;;;;;;;;;;;10.70;92.50;;;;;;4997369;28;19913;-69
2022/10/13 00:31:15;;;;;;;;;;;10.70;92.40;;;;;;4989325;28;19929;-69
2022/10/13 00:33:40;;;;;;;;;;;10.70;92.50;;;;;;4998009;28;19928;-69
2022/10/13 00:36:06;;;;;;;;;;;10.70;92.40;;;;;;4996612;28;19922;-69
2022/10/13 00:38:31;;;;;;;;;;;10.70;92.40;;;;;;4987688;28;20334;-69
2022/10/13 00:40:57;;;;;;;;;;;10.70;92.40;;;;;;4987848;28;19918;-69
2022/10/13 00:43:24;;;;;;;;;;;10.70;92.40;;;;;;4988201;28;19940;-69
2022/10/13 00:45:50;;;;;;;;;;;10.70;92.50;;;;;;4990670;28;19995;-69
2022/10/13 00:48:17;;;;;;;;;;;10.70;92.50;;;;;;4988505;28;20393;-69
2022/10/13 00:50:43;;;;;;;;;;;10.70;92.40;;;;;;4990755;28;20318;-69
2022/10/13 00:53:09;;;;;;;;;;;10.60;92.40;;;;;;4986081;28;19932;-69
2022/10/13 00:55:37;;;;;;;;;;;10.60;92.50;;;;;;4992056;28;19918;-69
2022/10/13 00:58:05;;;;;;;;;;;10.60;92.40;;;;;;4987939;28;19922;-69
2022/10/13 01:00:31;;;;;;;;;;;10.60;92.50;;;;;;4991402;28;19913;-69
2022/10/13 01:02:57;;;;;;;;;;;10.60;92.40;;;;;;4994349;28;20256;-69
2022/10/13 01:05:22;;;;;;;;;;;10.60;92.50;;;;;;4994008;28;19917;-69
2022/10/13 01:07:48;;;;;;;;;;;10.60;92.50;;;;;;4988979;28;20361;-69
2022/10/13 01:10:23;;;;;;;;;;;10.60;92.50;;;;;;4989299;28;20538;-69
2022/10/13 01:12:48;;;;;;;;;;;10.60;92.50;;;;;;4982817;28;19928;-69
2022/10/13 01:15:29;;;;;;;;;;;10.60;92.50;;;;;;4993852;28;20646;-68
2022/10/13 01:17:57;;;;;;;;;;;10.60;92.40;;;;;;4986132;28;19917;-68
2022/10/13 01:20:41;;;;;;;;;;;10.60;92.40;;;;;;5006249;28;19920;-69
2022/10/13 01:23:16;;;;;;;;;;;10.60;92.50;;;;;;4992785;28;19918;-68
2022/10/13 01:25:44;;;;;;;;;;;10.60;92.50;;;;;;4996478;28;19949;-68
2022/10/13 01:28:15;;;;;;;;;;;10.60;92.40;;;;;;4987388;28;19984;-68
2022/10/13 01:31:07;;;;;;;;;;;10.60;92.50;;;;;;4990998;28;19928;-69
2022/10/13 01:33:50;;;;;;;;;;;10.60;92.50;;;;;;4985122;28;19947;-69
2022/10/13 01:36:30;;;;;;;;;;;10.60;92.50;;;;;;4992574;28;20165;-69
2022/10/13 01:38:59;;;;;;;;;;;10.60;92.50;;;;;;4982259;28;19928;-69
2022/10/13 01:41:25;;;;;;;;;;;10.60;92.40;;;;;;4991432;28;19920;-69
2022/10/13 01:44:04;;;;;;;;;;;10.60;92.50;;;;;;4990366;28;19921;-69
2022/10/13 01:46:35;;;;;;;;;;;10.60;92.50;;;;;;4986308;28;19956;-68
2022/10/13 01:49:02;;;;;;;;;;;10.60;92.50;;;;;;4986633;28;19925;-68
2022/10/13 01:51:30;;;;;;;;;;;10.60;92.50;;;;;;4990847;28;19926;-69
2022/10/13 01:53:55;;;;;;;;;;;10.60;92.40;;;;;;4988988;28;19964;-69
2022/10/13 01:56:21;;;;;;;;;;;10.60;92.50;;;;;;4990824;28;20596;-69
2022/10/13 01:58:48;;;;;;;;;;;10.60;92.70;;;;;;4994076;28;19914;-69
2022/10/13 02:01:21;;;;;;;;;;;10.60;92.40;;;;;;4984394;28;20370;-69
2022/10/13 02:04:06;;;;;;;;;;;10.60;92.40;;;;;;4986681;28;19913;-69
2022/10/13 02:06:38;;;;;;;;;;;10.60;92.40;;;;;;4968037;28;19917;-69
2022/10/13 02:09:07;;;;;;;;;;;10.60;92.40;;;;;;4997050;28;19913;-69
2022/10/13 02:11:33;;;;;;;;;;;10.60;92.40;;;;;;4990486;28;20278;-69
2022/10/13 02:14:02;;;;;;;;;;;10.60;92.40;;;;;;4992835;28;19913;-69
2022/10/13 02:16:30;;;;;;;;;;;10.50;92.40;;;;;;4992222;28;20071;-69
2022/10/13 02:18:56;;;;;;;;;;;10.60;92.40;;;;;;4991435;28;19917;-69
2022/10/13 02:21:21;;;;;;;;;;;10.60;92.40;;;;;;4991656;28;19914;-68
2022/10/13 02:23:47;;;;;;;;;;;10.60;92.40;;;;;;4996068;28;19914;-69
2022/10/13 02:26:13;;;;;;;;;;;10.60;92.50;;;;;;4992929;28;20569;-69
2022/10/13 02:28:38;;;;;;;;;;;10.60;92.40;;;;;;4994873;28;19918;-69
2022/10/13 02:31:06;;;;;;;;;;;10.60;92.40;;;;;;4989469;28;19921;-69
2022/10/13 02:33:32;;;;;;;;;;;10.60;92.40;;;;;;4999713;28;19918;-70
2022/10/13 02:35:57;;;;;;;;;;;10.60;92.40;;;;;;4993255;28;20351;-69
2022/10/13 02:38:23;;;;;;;;;;;10.60;92.40;;;;;;4993605;28;20282;-69
2022/10/13 02:40:48;;;;;;;;;;;10.60;92.40;;;;;;4997024;28;19914;-69
2022/10/13 02:43:14;;;;;;;;;;;10.60;92.40;;;;;;4999506;28;19963;-69
2022/10/13 02:45:39;;;;;;;;;;;10.60;92.40;;;;;;4997406;28;19975;-69
2022/10/13 02:48:05;;;;;;;;;;;10.60;92.40;;;;;;4986524;28;19914;-69
2022/10/13 02:50:30;;;;;;;;;;;10.60;92.40;;;;;;5001059;28;19921;-69
2022/10/13 02:52:56;;;;;;;;;;;10.70;92.40;;;;;;4994350;28;19923;-69
2022/10/13 02:55:21;;;;;;;;;;;10.60;92.40;;;;;;4995951;28;20005;-69
2022/10/13 02:57:47;;;;;;;;;;;10.60;92.40;;;;;;4996238;28;19921;-70
2022/10/13 03:00:13;;;;;;;;;;;10.70;92.40;;;;;;4999605;28;19913;-69
2022/10/13 03:02:38;;;;;;;;;;;10.70;92.40;;;;;;4993586;28;19928;-69
2022/10/13 03:05:04;;;;;;;;;;;10.70;92.40;;;;;;4990467;28;20474;-69
2022/10/13 03:07:29;;;;;;;;;;;10.70;92.30;;;;;;4996708;28;20613;-69
2022/10/13 03:09:55;;;;;;;;;;;10.70;92.40;;;;;;4992270;28;20654;-69
2022/10/13 03:12:20;;;;;;;;;;;10.70;92.40;;;;;;4991175;28;19968;-69
2022/10/13 03:14:46;;;;;;;;;;;10.70;92.30;;;;;;4994371;28;20445;-69
2022/10/13 03:17:11;;;;;;;;;;;10.70;92.40;;;;;;4986312;28;19964;-69
2022/10/13 03:19:37;;;;;;;;;;;10.70;92.30;;;;;;4990183;28;19918;-69
2022/10/13 03:22:02;;;;;;;;;;;10.70;92.40;;;;;;4986420;28;19914;-69
2022/10/13 03:24:28;;;;;;;;;;;10.70;92.40;;;;;;4990772;28;20337;-69
2022/10/13 03:26:53;;;;;;;;;;;10.70;92.30;;;;;;4991456;28;19913;-69
2022/10/13 03:29:19;;;;;;;;;;;10.70;92.30;;;;;;4987139;28;19929;-69
2022/10/13 03:31:44;;;;;;;;;;;10.70;92.40;;;;;;4992025;28;20690;-69
2022/10/13 03:34:10;;;;;;;;;;;10.70;92.30;;;;;;4989502;28;19918;-69
2022/10/13 03:36:36;;;;;;;;;;;10.70;92.40;;;;;;4990022;28;19914;-69
2022/10/13 03:39:01;;;;;;;;;;;10.70;92.40;;;;;;4988966;28;19925;-68
2022/10/13 03:41:27;;;;;;;;;;;10.70;92.30;;;;;;4999745;28;19917;-69
2022/10/13 03:43:53;;;;;;;;;;;10.70;92.40;;;;;;4993550;28;19922;-69
2022/10/13 03:46:18;;;;;;;;;;;10.70;92.30;;;;;;4993139;28;19979;-69
2022/10/13 03:48:44;;;;;;;;;;;10.70;92.40;;;;;;4988330;28;19933;-69
2022/10/13 03:51:11;;;;;;;;;;;10.70;92.30;;;;;;4988213;28;19925;-68
2022/10/13 03:53:37;;;;;;;;;;;10.70;92.30;;;;;;4989773;28;19924;-69
2022/10/13 03:56:03;;;;;;;;;;;10.70;92.30;;;;;;4995640;28;19914;-69
2022/10/13 03:58:29;;;;;;;;;;;10.70;92.30;;;;;;4996483;28;19935;-69
2022/10/13 04:00:55;;;;;;;;;;;10.70;92.30;;;;;;4989463;28;19917;-68
2022/10/13 04:03:20;;;;;;;;;;;10.70;92.40;;;;;;4994848;28;20630;-69
2022/10/13 04:05:46;;;;;;;;;;;10.70;92.30;;;;;;4986565;28;19924;-69
2022/10/13 04:08:12;;;;;;;;;;;10.70;92.30;;;;;;4992567;28;20505;-69
2022/10/13 04:10:38;;;;;;;;;;;10.70;92.40;;;;;;4990311;28;19922;-69
2022/10/13 04:13:04;;;;;;;;;;;10.70;92.30;;;;;;4998371;28;20067;-69
2022/10/13 04:15:30;;;;;;;;;;;10.70;92.30;;;;;;4993477;28;19921;-68
2022/10/13 04:17:55;;;;;;;;;;;10.70;92.30;;;;;;4995078;28;19960;-69
2022/10/13 04:20:21;;;;;;;;;;;10.70;92.30;;;;;;4992476;28;19983;-69
2022/10/13 04:22:46;;;;;;;;;;;10.70;92.30;;;;;;4989176;28;19921;-69
2022/10/13 04:25:12;;;;;;;;;;;10.70;92.30;;;;;;4986256;28;20264;-69
2022/10/13 04:27:38;;;;;;;;;;;10.70;92.30;;;;;;4992404;28;19921;-69
2022/10/13 04:30:05;;;;;;;;;;;10.70;92.30;;;;;;4987654;28;19913;-69
2022/10/13 04:32:30;;;;;;;;;;;10.70;92.30;;;;;;4993931;28;19925;-69
2022/10/13 04:34:55;;;;;;;;;;;10.70;92.30;;;;;;4989750;28;19917;-69
2022/10/13 04:37:22;;;;;;;;;;;10.70;92.30;;;;;;4987985;28;20025;-69
2022/10/13 04:39:47;;;;;;;;;;;10.70;92.30;;;;;;4991153;28;19922;-69
2022/10/13 04:42:13;;;;;;;;;;;10.70;92.30;;;;;;4989836;28;19914;-69
2022/10/13 04:44:38;;;;;;;;;;;10.70;92.30;;;;;;4989977;28;19920;-69
2022/10/13 04:47:04;;;;;;;;;;;10.70;92.30;;;;;;4987873;28;19914;-69
2022/10/13 04:49:29;;;;;;;;;;;10.70;92.30;;;;;;4992110;28;19913;-69
2022/10/13 04:51:55;;;;;;;;;;;10.70;92.30;;;;;;4984238;28;19932;-69
2022/10/13 04:54:21;;;;;;;;;;;10.70;92.20;;;;;;4989300;28;19917;-69
2022/10/13 04:56:46;;;;;;;;;;;10.70;92.30;;;;;;4989878;28;20350;-70
2022/10/13 04:59:12;;;;;;;;;;;10.70;92.50;;;;;;4990965;28;19960;-69
2022/10/13 05:01:37;;;;;;;;;;;10.70;92.20;;;;;;4990377;28;19925;-69
2022/10/13 05:04:03;;;;;;;;;;;10.70;92.30;;;;;;5000837;28;19913;-69
2022/10/13 05:06:31;;;;;;;;;;;10.70;92.30;;;;;;4989368;28;19956;-69
2022/10/13 05:08:56;;;;;;;;;;;10.80;92.30;;;;;;4988038;28;19917;-69
2022/10/13 05:11:23;;;;;;;;;;;10.80;92.30;;;;;;4988158;28;20267;-69
2022/10/13 05:13:48;;;;;;;;;;;10.80;92.30;;;;;;4986921;28;19917;-69
2022/10/13 05:16:15;;;;;;;;;;;10.80;92.30;;;;;;4993917;28;19913;-69
2022/10/13 05:18:41;;;;;;;;;;;10.80;92.20;;;;;;4984134;28;20507;-69
2022/10/13 05:21:08;;;;;;;;;;;10.70;92.20;;;;;;4990561;28;19913;-69
2022/10/13 05:23:33;;;;;;;;;;;10.80;92.20;;;;;;4985158;28;19917;-69
2022/10/13 05:26:12;;;;;;;;;;;10.80;92.20;;;;;;4993124;28;19921;-69
2022/10/13 05:28:38;;;;;;;;;;;10.80;92.20;;;;;;4986699;28;19918;-69
2022/10/13 05:31:20;;;;;;;;;;;10.80;92.30;;;;;;4994362;28;19921;-69
2022/10/13 05:33:46;;;;;;;;;;;10.80;92.20;;;;;;4988894;28;19928;-69
2022/10/13 05:36:16;;;;;;;;;;;10.80;92.20;;;;;;4994268;28;19917;-69
2022/10/13 05:38:42;;;;;;;;;;;10.80;92.20;;;;;;4983021;28;20386;-69
2022/10/13 05:41:09;;;;;;;;;;;10.80;92.20;;;;;;4989045;28;19914;-70
2022/10/13 05:43:35;;;;;;;;;;;10.80;92.30;;;;;;4993508;28;20334;-69
2022/10/13 05:46:00;;;;;;;;;;;10.80;92.20;;;;;;4991212;28;20279;-69
2022/10/13 05:48:26;;;;;;;;;;;10.80;92.20;;;;;;4988806;28;19917;-69
2022/10/13 05:50:53;;;;;;;;;;;10.80;92.30;;;;;;4991535;28;19918;-69
2022/10/13 05:53:18;;;;;;;;;;;10.80;92.30;;;;;;4989396;28;19949;-69
2022/10/13 05:55:44;;;;;;;;;;;10.80;92.20;;;;;;4993157;28;20414;-69
2022/10/13 05:58:10;;;;;;;;;;;10.80;92.20;;;;;;4990330;28;19914;-68
2022/10/13 06:00:35;;;;;;;;;;;10.80;92.30;;;;;;4989916;28;19917;-69
2022/10/13 06:03:08;;;;;;;;;;;10.80;92.30;;;;;;4994103;28;19948;-69
2022/10/13 06:05:34;;;;;;;;;;;10.80;92.20;;;;;;4989026;28;20354;-69
2022/10/13 06:08:00;;;;;;;;;;;10.80;92.20;;;;;;4994542;28;20088;-69
2022/10/13 06:10:26;;;;;;;;;;;10.80;92.30;;;;;;4986784;28;19926;-70
2022/10/13 06:12:51;;;;;;;;;;;10.80;92.30;;;;;;4993969;28;20299;-69
2022/10/13 06:15:17;;;;;;;;;;;10.80;92.20;;;;;;4989341;28;19928;-69
2022/10/13 06:17:42;;;;;;;;;;;10.80;92.30;;;;;;4993194;28;19913;-69
2022/10/13 06:20:09;;;;;;;;;;;10.80;92.20;;;;;;4993307;28;19918;-69
2022/10/13 06:22:36;;;;;;;;;;;10.80;92.20;;;;;;4991757;28;19910;-69
2022/10/13 06:25:02;;;;;;;;;;;10.80;92.20;;;;;;4991344;28;19971;-69
2022/10/13 06:27:28;;;;;;;;;;;10.80;92.20;;;;;;4991508;28;19918;-69
2022/10/13 06:29:53;;;;;;;;;;;10.80;92.20;;;;;;4990767;28;19976;-69
2022/10/13 06:32:19;;;;;;;;;;;10.80;92.20;;;;;;4996190;28;20323;-70
2022/10/13 06:34:44;;;;;;;;;;;10.90;92.20;;;;;;4993914;28;19914;-70
2022/10/13 06:37:10;;;;;;;;;;;10.80;92.10;;;;;;4993343;28;19960;-69
2022/10/13 06:39:35;;;;;;;;;;;10.90;92.20;;;;;;4995336;28;20012;-69
2022/10/13 06:42:01;;;;;;;;;;;10.90;92.20;;;;;;4991110;28;20259;-69
2022/10/13 06:44:26;;;;;;;;;;;10.90;92.10;;;;;;4989795;28;19957;-69
2022/10/13 06:46:52;;;;;;;;;;;10.90;92.10;;;;;;4992333;28;20309;-69
2022/10/13 06:49:17;;;;;;;;;;;10.90;92.10;;;;;;4995723;28;19917;-69
2022/10/13 06:51:43;;;;;;;;;;;10.90;92.10;;;;;;5001141;28;19917;-69
2022/10/13 06:54:08;;;;;;;;;;;10.90;92.10;;;;;;4999092;28;19910;-69
2022/10/13 06:56:34;;;;;;;;;;;10.90;92.10;;;;;;4989764;28;20637;-69
2022/10/13 06:58:59;;;;;;;;;;;10.90;92.10;;;;;;4998502;28;19968;-69
2022/10/13 07:01:25;;;;;;;;;;;10.90;92.10;;;;;;4994822;28;20330;-69
2022/10/13 07:03:50;;;;;;;;;;;10.90;92.10;;;;;;4991706;28;19968;-69
2022/10/13 07:06:16;;;;;;;;;;;10.90;92.10;;;;;;4987812;28;19926;-69
2022/10/13 07:08:42;;;;;;;;;;;10.90;92.00;;;;;;4997623;28;19956;-69
2022/10/13 07:11:08;;;;;;;;;;;11.00;92.10;;;;;;4990961;28;19922;-69
2022/10/13 07:13:33;;;;;;;;;;;11.00;92.10;;;;;;4989074;28;20555;-69
2022/10/13 07:16:01;;;;;;;;;;;10.90;92.00;;;;;;4997912;28;19918;-69
2022/10/13 07:18:26;;;;;;;;;;;11.00;92.00;;;;;;4992709;28;20291;-69
2022/10/13 07:20:52;;;;;;;;;;;11.00;92.20;;;;;;4996898;28;19921;-69
2022/10/13 07:23:17;;;;;;;;;;;11.00;92.00;;;;;;4989326;28;19909;-69
2022/10/13 07:25:43;;;;;;;;;;;11.00;92.00;;;;;;4999271;28;19914;-69
2022/10/13 07:28:08;;;;;;;;;;;11.00;92.10;;;;;;4986073;28;19918;-69
2022/10/13 07:30:34;;;;;;;;;;;11.10;92.00;;;;;;4987534;28;20004;-69
2022/10/13 07:33:00;;;;;;;;;;;11.10;92.00;;;;;;4987761;28;19918;-69
2022/10/13 07:35:25;;;;;;;;;;;11.10;91.90;;;;;;4994939;28;19914;-69
2022/10/13 07:37:51;;;;;;;;;;;11.10;92.00;;;;;;4995473;28;19918;-69
2022/10/13 07:40:17;;;;;;;;;;;11.20;91.90;;;;;;4992986;28;20666;-69
2022/10/13 07:42:42;;;;;;;;;;;11.20;91.80;;;;;;4994606;28;19918;-69
2022/10/13 07:45:08;;;;;;;;;;;11.20;91.90;;;;;;4989299;28;19914;-69
2022/10/13 07:47:34;;;;;;;;;;;11.20;91.80;;;;;;4991236;28;19971;-69
2022/10/13 07:49:59;;;;;;;;;;;11.30;91.90;;;;;;4988125;28;19930;-69
2022/10/13 07:52:25;;;;;;;;;;;11.30;92.00;;;;;;4998655;28;19918;-69
2022/10/13 07:54:50;;;;;;;;;;;11.40;92.00;;;;;;4994191;28;19917;-69
2022/10/13 07:57:16;;;;;;;;;;;11.40;92.10;;;;;;4996382;28;19913;-69
2022/10/13 07:59:41;;;;;;;;;;;11.50;91.80;;;;;;4991086;28;19917;-69
2022/10/13 08:02:08;;;;;;;;;;;11.50;92.00;;;;;;4990165;28;20457;-69
2022/10/13 08:04:34;;;;;;;;;;;11.60;92.00;;;;;;4988186;28;19918;-69
2022/10/13 08:07:00;;;;;;;;;;;11.60;92.00;;;;;;4994569;28;20012;-69
2022/10/13 08:09:26;;;;;;;;;;;11.60;91.80;;;;;;4998857;28;19918;-69
2022/10/13 08:11:52;;;;;;;;;;;11.60;91.80;;;;;;4996926;28;20604;-69
2022/10/13 08:14:17;;;;;;;;;;;11.60;91.90;;;;;;4990026;28;19968;-69
2022/10/13 08:16:44;;;;;;;;;;;11.70;91.90;;;;;;4993733;28;19919;-69
2022/10/13 08:19:14;;;;;;;;;;;11.70;92.00;;;;;;4989561;28;19984;-69
2022/10/13 08:21:39;;;;;;;;;;;11.70;91.80;;;;;;4991957;28;20000;-69
2022/10/13 08:24:05;;;;;;;;;;;11.80;91.70;;;;;;4988875;28;20414;-69
2022/10/13 08:26:31;;;;;;;;;;;11.80;91.70;;;;;;4993435;28;20382;-69
2022/10/13 08:28:56;;;;;;;;;;;11.90;91.90;;;;;;4993887;28;19933;-69
2022/10/13 08:31:22;;;;;;;;;;;11.90;91.80;;;;;;4986139;28;20011;-69
2022/10/13 08:33:48;;;;;;;;;;;12.00;91.60;;;;;;4993122;28;19923;-69
2022/10/13 08:36:15;;;;;;;;;;;12.00;92.00;;;;;;4990057;28;19917;-69
2022/10/13 08:38:41;;;;;;;;;;;12.00;91.60;;;;;;4993935;28;19941;-69
2022/10/13 08:41:16;;;;;;;;;;;12.10;91.60;;;;;;4986555;28;20379;-69
2022/10/13 08:43:48;;;;;;;;;;;12.20;91.70;;;;;;4996523;28;19959;-69
2022/10/13 08:46:15;;;;;;;;;;;12.20;91.60;;;;;;4994428;28;19913;-69
2022/10/13 08:48:41;;;;;;;;;;;12.20;91.70;;;;;;4989102;28;19918;-69
2022/10/13 08:51:06;;;;;;;;;;;12.30;91.70;;;;;;4985485;28;19929;-69
2022/10/13 08:53:34;;;;;;;;;;;12.30;91.40;;;;;;4994927;28;19917;-69
2022/10/13 08:56:03;;;;;;;;;;;12.40;91.30;;;;;;5007062;28;20456;-69
2022/10/13 08:58:31;;;;;;;;;;;12.40;91.30;;;;;;4991146;28;19910;-69
2022/10/13 09:00:57;;;;;;;;;;;12.40;91.40;;;;;;4986256;28;20312;-69
2022/10/13 09:03:24;;;;;;;;;;;12.50;91.20;;;;;;4990150;28;19992;-69
2022/10/13 09:06:13;;;;;;;;;;;12.50;91.30;;;;;;4985224;28;19922;-69
2022/10/13 09:08:40;;;;;;;;;;;12.60;91.50;;;;;;4988513;28;19913;-69
2022/10/13 09:11:07;;;;;;;;;;;12.70;91.40;;;;;;4991244;28;19922;-69
2022/10/13 09:13:33;;;;;;;;;;;12.70;91.30;;;;;;4993667;28;20418;-69
2022/10/13 09:15:58;;;;;;;;;;;12.70;91.10;;;;;;4989163;28;19920;-69
2022/10/13 09:18:30;;;;;;;;;;;12.70;91.30;;;;;;4993618;28;19976;-69
2022/10/13 09:21:29;;;;;;;;;;;12.80;91.30;;;;;;4992289;28;19913;-69
2022/10/13 09:24:05;;;;;;;;;;;12.90;91.10;;;;;;4978043;28;20028;-69
2022/10/13 09:26:35;;;;;;;;;;;12.90;91.00;;;;;;4989370;28;19914;-69
2022/10/13 09:29:06;;;;;;;;;;;13.00;91.20;;;;;;4992859;28;19917;-69
2022/10/13 09:31:32;;;;;;;;;;;13.10;91.00;;;;;;4988991;28;20409;-69
2022/10/13 09:33:58;;;;;;;;;;;13.10;90.90;;;;;;4991715;28;20630;-69
2022/10/13 09:36:23;;;;;;;;;;;13.20;91.00;;;;;;4995185;28;19921;-69
2022/10/13 09:39:04;;;;;;;;;;;13.30;91.00;;;;;;4987039;28;19918;-69
2022/10/13 09:41:30;;;;;;;;;;;13.30;90.90;;;;;;4985377;28;19914;-69
2022/10/13 09:43:58;;;;;;;;;;;13.40;91.00;;;;;;4988498;28;19922;-69
2022/10/13 09:46:23;;;;;;;;;;;13.50;90.70;;;;;;4997615;28;19941;-69
2022/10/13 09:48:52;;;;;;;;;;;13.50;91.00;;;;;;4988737;28;19948;-69
2022/10/13 09:51:37;;;;;;;;;;;13.50;90.70;;;;;;4984170;28;20046;-69
2022/10/13 09:54:03;;;;;;;;;;;13.50;90.60;;;;;;4993445;28;19918;-69
2022/10/13 09:56:39;;;;;;;;;;;13.60;90.80;;;;;;4987289;28;20016;-69
2022/10/13 09:59:11;;;;;;;;;;;13.60;90.90;;;;;;4989168;28;20434;-69
2022/10/13 10:01:38;;;;;;;;;;;13.70;90.60;;;;;;4998550;28;20366;-69
2022/10/13 10:04:05;;;;;;;;;;;13.70;90.70;;;;;;4989566;28;19914;-69
2022/10/13 10:06:31;;;;;;;;;;;13.80;90.80;;;;;;4990377;28;19921;-69
2022/10/13 10:08:58;;;;;;;;;;;13.80;90.70;;;;;;4990088;28;19918;-69
2022/10/13 10:11:29;;;;;;;;;;;13.80;90.70;;;;;;4995898;28;19928;-69
2022/10/13 10:13:56;;;;;;;;;;;13.90;90.70;;;;;;4988305;28;19918;-69
2022/10/13 10:16:21;;;;;;;;;;;13.90;90.80;;;;;;4994338;28;19914;-69
2022/10/13 10:18:48;;;;;;;;;;;13.90;90.60;;;;;;4987952;28;19971;-69
2022/10/13 10:21:26;;;;;;;;;;;14.00;90.70;;;;;;4987460;28;19910;-69
2022/10/13 10:24:01;;;;;;;;;;;14.00;90.50;;;;;;4987382;28;20669;-69
2022/10/13 10:26:45;;;;;;;;;;;14.10;90.50;;;;;;4989763;28;20609;-69
2022/10/13 10:29:18;;;;;;;;;;;14.10;90.70;;;;;;4985157;28;19948;-70
2022/10/13 10:31:52;;;;;;;;;;;14.10;90.50;;;;;;4995439;28;19920;-69
2022/10/13 10:34:40;;;;;;;;;;;14.20;90.50;;;;;;4993187;28;20388;-69
2022/10/13 10:37:12;;;;;;;;;;;14.20;91.00;;;;;;4989318;28;19975;-69
2022/10/13 10:39:50;;;;;;;;;;;14.40;90.60;;;;;;4989833;28;19921;-69
2022/10/13 10:42:37;;;;;;;;;;;14.40;90.40;;;;;;4992077;28;19913;-69
2022/10/13 10:45:07;;;;;;;;;;;14.40;90.40;;;;;;4989871;28;19918;-69
2022/10/13 10:47:37;;;;;;;;;;;14.50;90.40;;;;;;4995090;28;19933;-69
2022/10/13 10:50:05;;;;;;;;;;;14.60;90.40;;;;;;4993963;28;20393;-69
2022/10/13 10:52:50;;;;;;;;;;;14.60;90.40;;;;;;4993195;28;19942;-69
2022/10/13 10:55:22;;;;;;;;;;;14.60;90.30;;;;;;4984877;28;20015;-69
2022/10/13 10:58:11;;;;;;;;;;;14.70;90.40;;;;;;4992440;28;19918;-70
2022/10/13 11:00:40;;;;;;;;;;;14.80;90.10;;;;;;4987501;28;20604;-69
2022/10/13 11:03:17;;;;;;;;;;;14.80;90.10;;;;;;4998159;28;20008;-69
2022/10/13 11:06:02;;;;;;;;;;;14.80;89.90;;;;;;4990348;28;19971;-69
2022/10/13 11:08:34;;;;;;;;;;;14.80;90.00;;;;;;4991302;28;19918;-70
2022/10/13 11:11:18;;;;;;;;;;;14.90;90.10;;;;;;4988656;28;20286;-69
2022/10/13 11:14:02;;;;;;;;;;;15.00;90.20;;;;;;4996351;28;19925;-69
2022/10/13 11:16:33;;;;;;;;;;;15.00;90.10;;;;;;4993696;28;19922;-70
2022/10/13 11:19:04;;;;;;;;;;;15.10;90.00;;;;;;4993096;28;19925;-69
2022/10/13 11:21:50;;;;;;;;;;;15.10;90.10;;;;;;4994425;28;20310;-69
2022/10/13 11:24:35;;;;;;;;;;;15.10;89.90;;;;;;4993847;28;19914;-69
2022/10/13 11:27:06;;;;;;;;;;;15.20;90.00;;;;;;4990070;28;19964;-69
2022/10/13 11:29:53;;;;;;;;;;;15.20;90.30;;;;;;5003808;28;20337;-69
2022/10/13 11:32:25;;;;;;;;;;;15.20;90.50;;;;;;4990892;28;19921;-69
2022/10/13 11:34:58;;;;;;;;;;;15.20;90.30;;;;;;4997363;28;19955;-69
2022/10/13 11:37:27;;;;;;;;;;;15.20;90.20;;;;;;4992442;28;20357;-69
2022/10/13 11:39:59;;;;;;;;;;;15.20;90.40;;;;;;4992998;28;19913;-70
2022/10/13 11:42:34;;;;;;;;;;;15.20;90.50;;;;;;4988286;28;19917;-70
2022/10/13 11:45:16;;;;;;;;;;;15.20;90.40;;;;;;4991341;28;20300;-69
2022/10/13 11:48:05;;;;;;;;;;;15.20;90.60;;;;;;4994908;28;19917;-69
2022/10/13 11:50:39;;;;;;;;;;;15.20;90.50;;;;;;4994083;28;19925;-69
2022/10/13 11:53:20;;;;;;;;;;;15.20;90.40;;;;;;4989270;28;19972;-69
2022/10/13 11:55:49;;;;;;;;;;;15.20;90.70;;;;;;4998448;28;19936;-69
2022/10/13 11:58:14;;;;;;;;;;;15.20;90.60;;;;;;4984643;28;19921;-69
2022/10/13 12:00:50;;;;;;;;;;;15.20;90.60;;;;;;4993894;28;20479;-69
2022/10/13 12:03:35;;;;;;;;;;;15.20;90.50;;;;;;5003147;28;19918;-70
2022/10/13 12:06:15;;;;;;;;;;;15.20;90.70;;;;;;4985840;28;19917;-69
2022/10/13 12:08:44;;;;;;;;;;;15.20;90.80;;;;;;4983960;28;20007;-69
2022/10/13 12:11:14;;;;;;;;;;;15.20;90.80;;;;;;4989902;28;20008;-69
2022/10/13 12:13:45;;;;;;;;;;;15.20;90.80;;;;;;4992312;28;19963;-69
2022/10/13 12:16:11;;;;;;;;;;;15.20;90.80;;;;;;4991419;28;19968;-69
2022/10/13 12:18:37;;;;;;;;;;;15.20;91.00;;;;;;4993110;28;20016;-69
2022/10/13 12:21:15;;;;;;;;;;;15.20;91.10;;;;;;4998463;28;20275;-69
2022/10/13 12:23:40;;;;;;;;;;;15.20;91.00;;;;;;4990481;28;19918;-69
2022/10/13 12:26:06;;;;;;;;;;;15.10;90.90;;;;;;4992014;28;19914;-69
2022/10/13 12:28:50;;;;;;;;;;;15.10;91.10;;;;;;4988354;28;20402;-69
2022/10/13 12:31:18;;;;;;;;;;;15.10;91.00;;;;;;4990410;28;19917;-69
2022/10/13 12:33:50;;;;;;;;;;;15.10;91.10;;;;;;4993995;28;21817;-69
2022/10/13 12:36:16;;;;;;;;;;;15.10;91.30;;;;;;4994011;28;19993;-69
2022/10/13 12:38:46;;;;;;;;;;;15.10;91.40;;;;;;4989862;28;19918;-70
2022/10/13 12:41:13;;;;;;;;;;;15.10;91.40;;;;;;4991806;28;20379;-69
2022/10/13 12:43:39;;;;;;;;;;;15.10;91.50;;;;;;4992094;28;19937;-69
2022/10/13 12:46:08;;;;;;;;;;;15.10;91.60;;;;;;4985118;28;19913;-69
2022/10/13 12:48:34;;;;;;;;;;;15.00;91.70;;;;;;4981580;28;20248;-69
2022/10/13 12:51:12;;;;;;;;;;;15.00;91.70;;;;;;4997000;28;19920;-69
2022/10/13 12:53:38;;;;;;;;;;;15.00;91.70;;;;;;4989544;28;20013;-69
2022/10/13 12:56:04;;;;;;;;;;;15.00;91.60;;;;;;4989848;28;19922;-70
2022/10/13 12:58:31;;;;;;;;;;;14.90;91.70;;;;;;4993124;28;19910;-69
2022/10/13 13:01:06;;;;;;;;;;;14.90;91.80;;;;;;4988938;28;20024;-69
2022/10/13 13:03:32;;;;;;;;;;;14.90;91.80;;;;;;4993541;28;19941;-69
2022/10/13 13:06:13;;;;;;;;;;;14.90;91.80;;;;;;4989754;28;19949;-70
2022/10/13 13:08:40;;;;;;;;;;;14.90;91.80;;;;;;4995471;28;19914;-69
2022/10/13 13:11:07;;;;;;;;;;;14.90;91.80;;;;;;4985245;28;20514;-70
2022/10/13 13:13:34;;;;;;;;;;;14.90;91.80;;;;;;4989191;28;21428;-70
2022/10/13 13:16:13;;;;;;;;;;;14.80;91.90;;;;;;4983389;28;19958;-70
2022/10/13 13:18:41;;;;;;;;;;;14.80;92.00;;;;;;4996156;28;19920;-70
2022/10/13 13:21:16;;;;;;;;;;;14.80;92.00;;;;;;4988407;28;19918;-70
2022/10/13 13:23:45;;;;;;;;;;;14.80;92.00;;;;;;4996621;28;19919;-69
2022/10/13 13:26:13;;;;;;;;;;;14.80;92.00;;;;;;4992644;28;19922;-69
2022/10/13 13:28:43;;;;;;;;;;;14.80;91.90;;;;;;4988475;28;19916;-69
2022/10/13 13:31:12;;;;;;;;;;;14.80;92.00;;;;;;4986040;28;19925;-70
2022/10/13 13:33:38;;;;;;;;;;;14.80;92.00;;;;;;4997498;28;19956;-70
2022/10/13 13:36:04;;;;;;;;;;;14.80;92.00;;;;;;4991465;28;20341;-69
2022/10/13 13:38:30;;;;;;;;;;;14.80;91.90;;;;;;4996367;28;20007;-70
2022/10/13 13:40:56;;;;;;;;;;;14.80;91.90;;;;;;5001233;28;19918;-70
2022/10/13 13:43:21;;;;;;;;;;;14.80;91.80;;;;;;4983518;28;20359;-69
2022/10/13 13:45:47;;;;;;;;;;;14.80;91.90;;;;;;4994944;28;19972;-69
2022/10/13 13:48:12;;;;;;;;;;;14.80;91.90;;;;;;4985373;28;19971;-69
2022/10/13 13:50:38;;;;;;;;;;;14.80;91.90;;;;;;4990703;28;19921;-70
2022/10/13 13:53:03;;;;;;;;;;;14.80;91.80;;;;;;4993870;28;19921;-69
2022/10/13 13:55:29;;;;;;;;;;;14.80;91.80;;;;;;4997195;28;19913;-69
2022/10/13 13:57:55;;;;;;;;;;;14.80;91.70;;;;;;4983022;28;19925;-69
2022/10/13 14:00:21;;;;;;;;;;;14.80;91.70;;;;;;4994810;28;19917;-69
2022/10/13 14:02:46;;;;;;;;;;;14.70;91.70;;;;;;4987143;28;19917;-70
2022/10/13 14:05:12;;;;;;;;;;;14.70;91.80;;;;;;4989801;28;19917;-69
2022/10/13 14:07:38;;;;;;;;;;;14.70;92.00;;;;;;4992407;28;20103;-70
2022/10/13 14:10:05;;;;;;;;;;;14.70;91.80;;;;;;4999416;28;19921;-69
2022/10/13 14:12:31;;;;;;;;;;;14.70;91.80;;;;;;4995575;28;19956;-69
2022/10/13 14:14:57;;;;;;;;;;;14.70;91.80;;;;;;4993934;28;19925;-69
2022/10/13 14:17:23;;;;;;;;;;;14.70;91.80;;;;;;4997263;28;19925;-69
2022/10/13 14:19:49;;;;;;;;;;;14.70;91.80;;;;;;4998199;28;20013;-69
2022/10/13 14:22:14;;;;;;;;;;;14.70;91.80;;;;;;4998539;28;20691;-69
2022/10/13 14:24:40;;;;;;;;;;;14.70;91.90;;;;;;4994392;28;19925;-69